sensor_id;sensor_type;location;lat;lon;timestamp;P1;durP1;ratioP1;P2;durP2;ratioP2
23866;SDS011;12114;53.404;-1.502;2023-05-29T00:01:24;26.15;;;7.15;;
23866;SDS011;12114;53.404;-1.502;2023-05-29T00:04:08;20.70;;;6.15;;
23866;SDS011;12114;53.404;-1.502;2023-05-29T00:06:51;30.70;;;7.25;;
23866;SDS011;12114;53.404;-1.502;2023-05-29T00:09:36;25.98;;;7.75;;
23866;SDS011;12114;53.404;-1.502;2023-05-29T00:12:20;22.27;;;8.18;;
23866;SDS011;12114;53.404;-1.502;2023-05-29T00:15:04;26.88;;;7.32;;
23866;SDS011;12114;53.404;-1.502;2023-05-29T00:17:49;22.83;;;6.60;;
23866;SDS011;12114;53.404;-1.502;2023-05-29T00:20:34;30.05;;;7.60;;
23866;SDS011;12114;53.404;-1.502;2023-05-29T00:23:18;27.55;;;6.97;;
23866;SDS011;12114;53.404;-1.502;2023-05-29T00:26:02;23.35;;;7.07;;
23866;SDS011;12114;53.404;-1.502;2023-05-29T00:28:46;21.92;;;6.50;;
23866;SDS011;12114;53.404;-1.502;2023-05-29T00:31:30;25.83;;;6.82;;
23866;SDS011;12114;53.404;-1.502;2023-05-29T00:34:14;28.40;;;7.22;;
23866;SDS011;12114;53.404;-1.502;2023-05-29T00:36:58;22.20;;;7.75;;
23866;SDS011;12114;53.404;-1.502;2023-05-29T00:39:42;21.92;;;7.38;;
23866;SDS011;12114;53.404;-1.502;2023-05-29T00:42:26;23.98;;;7.30;;
23866;SDS011;12114;53.404;-1.502;2023-05-29T00:45:10;21.33;;;6.18;;
23866;SDS011;12114;53.404;-1.502;2023-05-29T00:47:57;20.38;;;6.35;;
23866;SDS011;12114;53.404;-1.502;2023-05-29T00:50:43;22.00;;;6.18;;
23866;SDS011;12114;53.404;-1.502;2023-05-29T00:53:27;21.83;;;6.90;;
23866;SDS011;12114;53.404;-1.502;2023-05-29T00:56:12;19.27;;;5.90;;
23866;SDS011;12114;53.404;-1.502;2023-05-29T00:58:56;21.40;;;6.53;;
23866;SDS011;12114;53.404;-1.502;2023-05-29T01:01:40;24.27;;;6.95;;
23866;SDS011;12114;53.404;-1.502;2023-05-29T01:07:11;24.35;;;12.93;;
23866;SDS011;12114;53.404;-1.502;2023-05-29T01:09:56;28.27;;;10.93;;
23866;SDS011;12114;53.404;-1.502;2023-05-29T01:25:11;22.17;;;6.30;;
23866;SDS011;12114;53.404;-1.502;2023-05-29T01:27:56;25.02;;;6.60;;
23866;SDS011;12114;53.404;-1.502;2023-05-29T01:30:44;28.00;;;7.80;;
23866;SDS011;12114;53.404;-1.502;2023-05-29T01:33:29;23.90;;;6.57;;
23866;SDS011;12114;53.404;-1.502;2023-05-29T01:36:13;26.58;;;7.03;;
23866;SDS011;12114;53.404;-1.502;2023-05-29T01:38:57;21.58;;;7.07;;
23866;SDS011;12114;53.404;-1.502;2023-05-29T01:41:43;22.15;;;6.63;;
23866;SDS011;12114;53.404;-1.502;2023-05-29T01:44:28;21.67;;;7.22;;
23866;SDS011;12114;53.404;-1.502;2023-05-29T01:47:14;21.83;;;6.82;;
23866;SDS011;12114;53.404;-1.502;2023-05-29T01:49:59;22.63;;;6.90;;
23866;SDS011;12114;53.404;-1.502;2023-05-29T01:52:44;24.27;;;7.40;;
23866;SDS011;12114;53.404;-1.502;2023-05-29T01:55:27;21.95;;;6.32;;
23866;SDS011;12114;53.404;-1.502;2023-05-29T01:58:12;19.55;;;6.32;;
23866;SDS011;12114;53.404;-1.502;2023-05-29T02:00:58;22.08;;;6.18;;
23866;SDS011;12114;53.404;-1.502;2023-05-29T02:03:42;17.73;;;5.63;;
23866;SDS011;12114;53.404;-1.502;2023-05-29T02:06:26;15.98;;;5.90;;
23866;SDS011;12114;53.404;-1.502;2023-05-29T02:09:10;20.95;;;6.18;;
23866;SDS011;12114;53.404;-1.502;2023-05-29T02:11:54;19.02;;;6.15;;
23866;SDS011;12114;53.404;-1.502;2023-05-29T02:14:38;21.17;;;7.03;;
23866;SDS011;12114;53.404;-1.502;2023-05-29T02:17:23;20.10;;;7.97;;
23866;SDS011;12114;53.404;-1.502;2023-05-29T02:20:08;22.60;;;8.48;;
23866;SDS011;12114;53.404;-1.502;2023-05-29T02:22:53;18.55;;;8.02;;
23866;SDS011;12114;53.404;-1.502;2023-05-29T02:25:37;21.70;;;7.00;;
23866;SDS011;12114;53.404;-1.502;2023-05-29T02:28:22;17.17;;;5.60;;
23866;SDS011;12114;53.404;-1.502;2023-05-29T02:31:06;22.50;;;6.38;;
23866;SDS011;12114;53.404;-1.502;2023-05-29T02:33:50;21.67;;;6.68;;
23866;SDS011;12114;53.404;-1.502;2023-05-29T02:36:34;16.95;;;5.40;;
23866;SDS011;12114;53.404;-1.502;2023-05-29T02:39:21;24.48;;;5.88;;
23866;SDS011;12114;53.404;-1.502;2023-05-29T02:42:05;23.42;;;5.53;;
23866;SDS011;12114;53.404;-1.502;2023-05-29T02:44:49;20.92;;;4.95;;
23866;SDS011;12114;53.404;-1.502;2023-05-29T02:47:34;22.40;;;5.18;;
23866;SDS011;12114;53.404;-1.502;2023-05-29T02:50:19;16.33;;;4.70;;
23866;SDS011;12114;53.404;-1.502;2023-05-29T02:53:03;14.02;;;5.18;;
23866;SDS011;12114;53.404;-1.502;2023-05-29T02:55:47;20.33;;;5.03;;
23866;SDS011;12114;53.404;-1.502;2023-05-29T02:58:32;22.30;;;5.15;;
23866;SDS011;12114;53.404;-1.502;2023-05-29T03:01:17;14.07;;;4.60;;
23866;SDS011;12114;53.404;-1.502;2023-05-29T03:04:01;23.60;;;6.18;;
23866;SDS011;12114;53.404;-1.502;2023-05-29T03:06:45;17.27;;;5.10;;
23866;SDS011;12114;53.404;-1.502;2023-05-29T03:09:29;15.75;;;5.90;;
23866;SDS011;12114;53.404;-1.502;2023-05-29T03:12:13;17.05;;;6.25;;
23866;SDS011;12114;53.404;-1.502;2023-05-29T03:14:57;17.70;;;5.13;;
23866;SDS011;12114;53.404;-1.502;2023-05-29T03:17:41;16.65;;;4.70;;
23866;SDS011;12114;53.404;-1.502;2023-05-29T03:20:25;14.27;;;4.18;;
23866;SDS011;12114;53.404;-1.502;2023-05-29T03:23:10;19.83;;;4.63;;
23866;SDS011;12114;53.404;-1.502;2023-05-29T03:25:53;19.98;;;4.50;;
23866;SDS011;12114;53.404;-1.502;2023-05-29T03:28:38;14.65;;;4.80;;
23866;SDS011;12114;53.404;-1.502;2023-05-29T03:31:23;20.20;;;5.00;;
23866;SDS011;12114;53.404;-1.502;2023-05-29T03:34:07;16.67;;;5.05;;
23866;SDS011;12114;53.404;-1.502;2023-05-29T03:36:51;17.20;;;5.35;;
23866;SDS011;12114;53.404;-1.502;2023-05-29T03:39:35;19.48;;;5.60;;
23866;SDS011;12114;53.404;-1.502;2023-05-29T03:42:20;23.58;;;5.75;;
23866;SDS011;12114;53.404;-1.502;2023-05-29T03:45:04;20.52;;;5.68;;
23866;SDS011;12114;53.404;-1.502;2023-05-29T03:47:49;18.83;;;6.00;;
23866;SDS011;12114;53.404;-1.502;2023-05-29T03:50:33;20.92;;;6.47;;
23866;SDS011;12114;53.404;-1.502;2023-05-29T03:53:17;16.15;;;5.63;;
23866;SDS011;12114;53.404;-1.502;2023-05-29T03:56:01;16.83;;;5.15;;
23866;SDS011;12114;53.404;-1.502;2023-05-29T03:58:45;23.27;;;5.88;;
23866;SDS011;12114;53.404;-1.502;2023-05-29T04:01:29;17.60;;;5.72;;
23866;SDS011;12114;53.404;-1.502;2023-05-29T04:04:13;18.38;;;5.53;;
23866;SDS011;12114;53.404;-1.502;2023-05-29T04:06:56;21.52;;;5.30;;
23866;SDS011;12114;53.404;-1.502;2023-05-29T04:09:41;20.45;;;5.80;;
23866;SDS011;12114;53.404;-1.502;2023-05-29T04:12:24;17.02;;;4.72;;
23866;SDS011;12114;53.404;-1.502;2023-05-29T04:15:08;13.18;;;4.13;;
23866;SDS011;12114;53.404;-1.502;2023-05-29T04:17:53;14.98;;;4.50;;
23866;SDS011;12114;53.404;-1.502;2023-05-29T04:20:38;21.77;;;4.80;;
23866;SDS011;12114;53.404;-1.502;2023-05-29T04:23:22;15.98;;;4.55;;
23866;SDS011;12114;53.404;-1.502;2023-05-29T04:26:06;16.17;;;4.82;;
23866;SDS011;12114;53.404;-1.502;2023-05-29T04:28:50;11.90;;;4.60;;
23866;SDS011;12114;53.404;-1.502;2023-05-29T04:31:40;17.20;;;5.68;;
23866;SDS011;12114;53.404;-1.502;2023-05-29T04:34:24;21.20;;;5.00;;
23866;SDS011;12114;53.404;-1.502;2023-05-29T04:37:08;12.93;;;4.95;;
23866;SDS011;12114;53.404;-1.502;2023-05-29T04:39:52;17.10;;;4.50;;
23866;SDS011;12114;53.404;-1.502;2023-05-29T04:42:37;20.20;;;5.28;;
23866;SDS011;12114;53.404;-1.502;2023-05-29T04:45:22;17.27;;;4.82;;
23866;SDS011;12114;53.404;-1.502;2023-05-29T04:48:05;19.65;;;4.97;;
23866;SDS011;12114;53.404;-1.502;2023-05-29T04:50:52;21.95;;;5.70;;
23866;SDS011;12114;53.404;-1.502;2023-05-29T04:53:39;17.45;;;5.20;;
23866;SDS011;12114;53.404;-1.502;2023-05-29T04:56:24;19.65;;;4.85;;
23866;SDS011;12114;53.404;-1.502;2023-05-29T04:59:10;16.95;;;5.05;;
23866;SDS011;12114;53.404;-1.502;2023-05-29T05:01:54;16.58;;;5.10;;
23866;SDS011;12114;53.404;-1.502;2023-05-29T05:04:38;19.35;;;5.60;;
23866;SDS011;12114;53.404;-1.502;2023-05-29T05:07:22;16.67;;;5.18;;
23866;SDS011;12114;53.404;-1.502;2023-05-29T05:10:07;15.50;;;4.88;;
23866;SDS011;12114;53.404;-1.502;2023-05-29T05:12:51;22.13;;;5.35;;
23866;SDS011;12114;53.404;-1.502;2023-05-29T05:15:35;16.25;;;5.68;;
23866;SDS011;12114;53.404;-1.502;2023-05-29T05:18:19;13.75;;;4.80;;
23866;SDS011;12114;53.404;-1.502;2023-05-29T05:21:03;22.50;;;5.00;;
23866;SDS011;12114;53.404;-1.502;2023-05-29T05:23:47;14.30;;;4.53;;
23866;SDS011;12114;53.404;-1.502;2023-05-29T05:26:31;20.15;;;5.50;;
23866;SDS011;12114;53.404;-1.502;2023-05-29T05:29:15;18.15;;;4.90;;
23866;SDS011;12114;53.404;-1.502;2023-05-29T05:31:59;13.52;;;4.88;;
23866;SDS011;12114;53.404;-1.502;2023-05-29T05:34:46;16.10;;;4.43;;
23866;SDS011;12114;53.404;-1.502;2023-05-29T05:37:30;14.27;;;4.60;;
23866;SDS011;12114;53.404;-1.502;2023-05-29T05:40:14;12.52;;;4.70;;
23866;SDS011;12114;53.404;-1.502;2023-05-29T05:42:58;14.25;;;4.55;;
23866;SDS011;12114;53.404;-1.502;2023-05-29T05:45:42;13.45;;;4.53;;
23866;SDS011;12114;53.404;-1.502;2023-05-29T05:48:26;11.57;;;4.20;;
23866;SDS011;12114;53.404;-1.502;2023-05-29T05:51:10;13.18;;;4.07;;
23866;SDS011;12114;53.404;-1.502;2023-05-29T05:53:56;10.80;;;4.10;;
23866;SDS011;12114;53.404;-1.502;2023-05-29T05:56:40;13.27;;;3.80;;
23866;SDS011;12114;53.404;-1.502;2023-05-29T05:59:24;21.02;;;4.32;;
23866;SDS011;12114;53.404;-1.502;2023-05-29T06:02:08;12.05;;;2.95;;
23866;SDS011;12114;53.404;-1.502;2023-05-29T06:04:52;15.60;;;3.30;;
23866;SDS011;12114;53.404;-1.502;2023-05-29T06:07:36;12.00;;;3.60;;
23866;SDS011;12114;53.404;-1.502;2023-05-29T06:10:20;11.65;;;2.78;;
23866;SDS011;12114;53.404;-1.502;2023-05-29T06:13:04;13.80;;;3.28;;
23866;SDS011;12114;53.404;-1.502;2023-05-29T06:15:48;14.82;;;3.13;;
23866;SDS011;12114;53.404;-1.502;2023-05-29T06:18:32;13.73;;;2.90;;
23866;SDS011;12114;53.404;-1.502;2023-05-29T06:21:16;14.10;;;2.90;;
23866;SDS011;12114;53.404;-1.502;2023-05-29T06:24:00;10.48;;;2.63;;
23866;SDS011;12114;53.404;-1.502;2023-05-29T06:26:44;17.02;;;3.50;;
23866;SDS011;12114;53.404;-1.502;2023-05-29T06:29:28;13.25;;;3.40;;
23866;SDS011;12114;53.404;-1.502;2023-05-29T06:32:12;12.10;;;2.70;;
23866;SDS011;12114;53.404;-1.502;2023-05-29T06:34:56;12.80;;;2.85;;
23866;SDS011;12114;53.404;-1.502;2023-05-29T06:37:40;7.85;;;2.70;;
23866;SDS011;12114;53.404;-1.502;2023-05-29T06:40:24;8.88;;;2.30;;
23866;SDS011;12114;53.404;-1.502;2023-05-29T06:43:08;9.48;;;2.28;;
23866;SDS011;12114;53.404;-1.502;2023-05-29T06:45:55;10.65;;;3.05;;
23866;SDS011;12114;53.404;-1.502;2023-05-29T06:48:39;10.95;;;2.90;;
23866;SDS011;12114;53.404;-1.502;2023-05-29T06:51:23;12.27;;;3.22;;
23866;SDS011;12114;53.404;-1.502;2023-05-29T06:54:07;13.45;;;2.53;;
23866;SDS011;12114;53.404;-1.502;2023-05-29T06:56:51;9.50;;;2.60;;
23866;SDS011;12114;53.404;-1.502;2023-05-29T06:59:36;6.55;;;2.17;;
23866;SDS011;12114;53.404;-1.502;2023-05-29T07:02:20;11.48;;;2.58;;
23866;SDS011;12114;53.404;-1.502;2023-05-29T07:05:04;8.55;;;2.40;;
23866;SDS011;12114;53.404;-1.502;2023-05-29T07:07:49;13.77;;;2.40;;
23866;SDS011;12114;53.404;-1.502;2023-05-29T07:10:32;8.68;;;2.58;;
23866;SDS011;12114;53.404;-1.502;2023-05-29T07:13:16;10.55;;;2.72;;
23866;SDS011;12114;53.404;-1.502;2023-05-29T07:16:01;9.80;;;2.53;;
23866;SDS011;12114;53.404;-1.502;2023-05-29T07:18:45;8.18;;;2.58;;
23866;SDS011;12114;53.404;-1.502;2023-05-29T07:21:29;9.95;;;2.60;;
23866;SDS011;12114;53.404;-1.502;2023-05-29T07:24:15;11.98;;;2.80;;
23866;SDS011;12114;53.404;-1.502;2023-05-29T07:26:58;9.93;;;2.55;;
23866;SDS011;12114;53.404;-1.502;2023-05-29T07:29:42;9.77;;;2.63;;
23866;SDS011;12114;53.404;-1.502;2023-05-29T07:32:26;14.05;;;2.63;;
23866;SDS011;12114;53.404;-1.502;2023-05-29T07:35:10;12.02;;;3.05;;
23866;SDS011;12114;53.404;-1.502;2023-05-29T07:37:54;12.77;;;2.67;;
23866;SDS011;12114;53.404;-1.502;2023-05-29T07:40:38;7.70;;;2.38;;
23866;SDS011;12114;53.404;-1.502;2023-05-29T07:43:22;10.60;;;2.35;;
23866;SDS011;12114;53.404;-1.502;2023-05-29T07:46:06;8.60;;;1.98;;
23866;SDS011;12114;53.404;-1.502;2023-05-29T07:48:50;13.30;;;2.38;;
23866;SDS011;12114;53.404;-1.502;2023-05-29T07:51:34;11.27;;;2.20;;
23866;SDS011;12114;53.404;-1.502;2023-05-29T07:54:19;9.55;;;2.28;;
23866;SDS011;12114;53.404;-1.502;2023-05-29T07:57:04;8.80;;;1.88;;
23866;SDS011;12114;53.404;-1.502;2023-05-29T07:59:56;5.65;;;2.25;;
23866;SDS011;12114;53.404;-1.502;2023-05-29T08:02:40;12.52;;;2.13;;
23866;SDS011;12114;53.404;-1.502;2023-05-29T08:08:09;6.80;;;1.88;;
23866;SDS011;12114;53.404;-1.502;2023-05-29T08:10:56;9.35;;;2.28;;
23866;SDS011;12114;53.404;-1.502;2023-05-29T08:13:40;8.48;;;2.15;;
23866;SDS011;12114;53.404;-1.502;2023-05-29T08:16:24;9.43;;;2.30;;
23866;SDS011;12114;53.404;-1.502;2023-05-29T08:19:10;8.65;;;2.03;;
23866;SDS011;12114;53.404;-1.502;2023-05-29T08:21:54;6.85;;;1.70;;
23866;SDS011;12114;53.404;-1.502;2023-05-29T08:24:38;8.60;;;1.70;;
23866;SDS011;12114;53.404;-1.502;2023-05-29T08:27:22;10.95;;;2.17;;
23866;SDS011;12114;53.404;-1.502;2023-05-29T08:30:06;7.18;;;2.17;;
23866;SDS011;12114;53.404;-1.502;2023-05-29T08:32:50;11.70;;;2.13;;
23866;SDS011;12114;53.404;-1.502;2023-05-29T08:35:34;10.75;;;2.58;;
23866;SDS011;12114;53.404;-1.502;2023-05-29T08:38:19;10.27;;;2.40;;
23866;SDS011;12114;53.404;-1.502;2023-05-29T08:41:04;9.32;;;2.05;;
23866;SDS011;12114;53.404;-1.502;2023-05-29T08:43:51;9.63;;;2.05;;
23866;SDS011;12114;53.404;-1.502;2023-05-29T08:46:36;9.68;;;2.13;;
23866;SDS011;12114;53.404;-1.502;2023-05-29T08:49:22;12.05;;;2.67;;
23866;SDS011;12114;53.404;-1.502;2023-05-29T08:52:09;7.50;;;2.42;;
23866;SDS011;12114;53.404;-1.502;2023-05-29T08:54:59;6.93;;;2.17;;
23866;SDS011;12114;53.404;-1.502;2023-05-29T08:57:44;8.48;;;2.45;;
23866;SDS011;12114;53.404;-1.502;2023-05-29T09:00:29;10.52;;;2.47;;
23866;SDS011;12114;53.404;-1.502;2023-05-29T09:03:14;10.20;;;2.20;;
23866;SDS011;12114;53.404;-1.502;2023-05-29T09:05:58;11.27;;;2.17;;
23866;SDS011;12114;53.404;-1.502;2023-05-29T09:08:43;9.30;;;2.10;;
23866;SDS011;12114;53.404;-1.502;2023-05-29T09:11:28;7.55;;;2.00;;
23866;SDS011;12114;53.404;-1.502;2023-05-29T09:14:31;7.00;;;2.13;;
23866;SDS011;12114;53.404;-1.502;2023-05-29T09:17:19;11.63;;;2.80;;
23866;SDS011;12114;53.404;-1.502;2023-05-29T09:20:05;10.93;;;2.92;;
23866;SDS011;12114;53.404;-1.502;2023-05-29T09:22:59;9.77;;;2.08;;
23866;SDS011;12114;53.404;-1.502;2023-05-29T09:28:34;10.18;;;2.17;;
23866;SDS011;12114;53.404;-1.502;2023-05-29T09:31:19;6.25;;;1.60;;
23866;SDS011;12114;53.404;-1.502;2023-05-29T09:34:06;8.35;;;1.77;;
23866;SDS011;12114;53.404;-1.502;2023-05-29T09:36:50;10.00;;;2.10;;
23866;SDS011;12114;53.404;-1.502;2023-05-29T09:42:25;7.35;;;1.83;;
23866;SDS011;12114;53.404;-1.502;2023-05-29T09:45:09;9.10;;;2.17;;
23866;SDS011;12114;53.404;-1.502;2023-05-29T09:47:53;5.05;;;1.55;;
23866;SDS011;12114;53.404;-1.502;2023-05-29T09:50:39;10.77;;;2.07;;
23866;SDS011;12114;53.404;-1.502;2023-05-29T09:53:24;8.43;;;2.30;;
23866;SDS011;12114;53.404;-1.502;2023-05-29T09:58:53;8.95;;;2.05;;
23866;SDS011;12114;53.404;-1.502;2023-05-29T10:01:40;8.05;;;1.90;;
23866;SDS011;12114;53.404;-1.502;2023-05-29T10:04:29;7.18;;;2.10;;
23866;SDS011;12114;53.404;-1.502;2023-05-29T10:10:11;9.43;;;2.10;;
23866;SDS011;12114;53.404;-1.502;2023-05-29T10:12:57;10.85;;;2.55;;
23866;SDS011;12114;53.404;-1.502;2023-05-29T10:15:45;11.35;;;2.13;;
23866;SDS011;12114;53.404;-1.502;2023-05-29T10:21:18;9.93;;;2.05;;
23866;SDS011;12114;53.404;-1.502;2023-05-29T10:24:02;8.13;;;2.25;;
23866;SDS011;12114;53.404;-1.502;2023-05-29T10:26:50;7.53;;;1.80;;
23866;SDS011;12114;53.404;-1.502;2023-05-29T10:29:37;7.45;;;2.40;;
23866;SDS011;12114;53.404;-1.502;2023-05-29T10:38:35;7.47;;;2.13;;
23866;SDS011;12114;53.404;-1.502;2023-05-29T10:47:29;10.15;;;2.47;;
23866;SDS011;12114;53.404;-1.502;2023-05-29T10:50:14;7.07;;;1.98;;
23866;SDS011;12114;53.404;-1.502;2023-05-29T10:53:23;8.52;;;1.67;;
23866;SDS011;12114;53.404;-1.502;2023-05-29T10:56:08;8.48;;;2.00;;
23866;SDS011;12114;53.404;-1.502;2023-05-29T10:58:58;7.97;;;1.70;;
23866;SDS011;12114;53.404;-1.502;2023-05-29T11:01:45;8.48;;;1.63;;
23866;SDS011;12114;53.404;-1.502;2023-05-29T11:04:29;8.00;;;2.47;;
23866;SDS011;12114;53.404;-1.502;2023-05-29T11:07:32;8.13;;;1.88;;
23866;SDS011;12114;53.404;-1.502;2023-05-29T11:10:16;8.45;;;2.20;;
23866;SDS011;12114;53.404;-1.502;2023-05-29T11:13:01;8.35;;;2.38;;
23866;SDS011;12114;53.404;-1.502;2023-05-29T11:15:48;10.30;;;2.30;;
23866;SDS011;12114;53.404;-1.502;2023-05-29T11:18:47;6.07;;;1.67;;
23866;SDS011;12114;53.404;-1.502;2023-05-29T11:24:33;7.85;;;2.30;;
23866;SDS011;12114;53.404;-1.502;2023-05-29T11:27:20;9.32;;;2.28;;
23866;SDS011;12114;53.404;-1.502;2023-05-29T11:30:05;11.13;;;2.30;;
23866;SDS011;12114;53.404;-1.502;2023-05-29T11:32:49;4.45;;;1.70;;
23866;SDS011;12114;53.404;-1.502;2023-05-29T11:35:35;6.97;;;2.00;;
23866;SDS011;12114;53.404;-1.502;2023-05-29T11:38:22;8.80;;;2.03;;
23866;SDS011;12114;53.404;-1.502;2023-05-29T11:41:08;8.60;;;2.30;;
23866;SDS011;12114;53.404;-1.502;2023-05-29T11:44:00;8.23;;;2.27;;
23866;SDS011;12114;53.404;-1.502;2023-05-29T11:46:46;5.95;;;2.20;;
23866;SDS011;12114;53.404;-1.502;2023-05-29T11:49:31;7.68;;;2.17;;
23866;SDS011;12114;53.404;-1.502;2023-05-29T11:52:18;9.27;;;2.25;;
23866;SDS011;12114;53.404;-1.502;2023-05-29T11:55:06;12.70;;;2.13;;
23866;SDS011;12114;53.404;-1.502;2023-05-29T11:57:51;7.10;;;2.10;;
23866;SDS011;12114;53.404;-1.502;2023-05-29T12:00:40;7.80;;;2.28;;
23866;SDS011;12114;53.404;-1.502;2023-05-29T12:03:25;7.80;;;1.90;;
23866;SDS011;12114;53.404;-1.502;2023-05-29T12:06:11;7.85;;;2.10;;
23866;SDS011;12114;53.404;-1.502;2023-05-29T12:08:55;12.85;;;2.22;;
23866;SDS011;12114;53.404;-1.502;2023-05-29T12:11:40;7.45;;;1.90;;
23866;SDS011;12114;53.404;-1.502;2023-05-29T12:14:24;6.93;;;2.13;;
23866;SDS011;12114;53.404;-1.502;2023-05-29T12:17:08;10.77;;;1.90;;
23866;SDS011;12114;53.404;-1.502;2023-05-29T12:19:52;9.85;;;2.13;;
23866;SDS011;12114;53.404;-1.502;2023-05-29T12:22:37;8.70;;;2.10;;
23866;SDS011;12114;53.404;-1.502;2023-05-29T12:25:22;7.05;;;2.08;;
23866;SDS011;12114;53.404;-1.502;2023-05-29T12:28:06;6.72;;;2.05;;
23866;SDS011;12114;53.404;-1.502;2023-05-29T12:30:57;8.43;;;2.00;;
23866;SDS011;12114;53.404;-1.502;2023-05-29T12:33:42;8.40;;;2.20;;
23866;SDS011;12114;53.404;-1.502;2023-05-29T12:36:27;7.97;;;1.70;;
23866;SDS011;12114;53.404;-1.502;2023-05-29T12:39:11;9.50;;;2.20;;
23866;SDS011;12114;53.404;-1.502;2023-05-29T12:41:55;7.25;;;1.90;;
23866;SDS011;12114;53.404;-1.502;2023-05-29T12:44:39;7.82;;;2.10;;
23866;SDS011;12114;53.404;-1.502;2023-05-29T12:47:23;7.50;;;2.13;;
23866;SDS011;12114;53.404;-1.502;2023-05-29T12:50:24;8.40;;;1.92;;
23866;SDS011;12114;53.404;-1.502;2023-05-29T12:53:13;8.15;;;1.98;;
23866;SDS011;12114;53.404;-1.502;2023-05-29T12:55:58;8.95;;;1.80;;
23866;SDS011;12114;53.404;-1.502;2023-05-29T12:58:43;11.32;;;2.00;;
23866;SDS011;12114;53.404;-1.502;2023-05-29T13:01:27;7.93;;;2.22;;
23866;SDS011;12114;53.404;-1.502;2023-05-29T13:04:10;8.18;;;2.05;;
23866;SDS011;12114;53.404;-1.502;2023-05-29T13:06:56;6.75;;;1.58;;
23866;SDS011;12114;53.404;-1.502;2023-05-29T13:09:39;9.13;;;2.10;;
23866;SDS011;12114;53.404;-1.502;2023-05-29T13:12:24;6.95;;;1.88;;
23866;SDS011;12114;53.404;-1.502;2023-05-29T13:15:09;8.18;;;1.75;;
23866;SDS011;12114;53.404;-1.502;2023-05-29T13:17:54;8.85;;;2.35;;
23866;SDS011;12114;53.404;-1.502;2023-05-29T13:20:38;5.70;;;1.48;;
23866;SDS011;12114;53.404;-1.502;2023-05-29T13:23:22;4.93;;;1.40;;
23866;SDS011;12114;53.404;-1.502;2023-05-29T13:26:07;6.03;;;2.00;;
23866;SDS011;12114;53.404;-1.502;2023-05-29T13:28:51;9.77;;;2.00;;
23866;SDS011;12114;53.404;-1.502;2023-05-29T13:31:35;4.80;;;1.80;;
23866;SDS011;12114;53.404;-1.502;2023-05-29T13:34:19;8.73;;;1.90;;
23866;SDS011;12114;53.404;-1.502;2023-05-29T13:37:03;7.90;;;2.15;;
23866;SDS011;12114;53.404;-1.502;2023-05-29T13:39:48;8.75;;;1.90;;
23866;SDS011;12114;53.404;-1.502;2023-05-29T13:42:32;6.07;;;1.92;;
23866;SDS011;12114;53.404;-1.502;2023-05-29T13:45:16;9.13;;;2.00;;
23866;SDS011;12114;53.404;-1.502;2023-05-29T13:48:00;8.13;;;1.88;;
23866;SDS011;12114;53.404;-1.502;2023-05-29T13:50:45;8.05;;;1.90;;
23866;SDS011;12114;53.404;-1.502;2023-05-29T13:53:29;10.68;;;1.92;;
23866;SDS011;12114;53.404;-1.502;2023-05-29T13:56:13;10.77;;;1.88;;
23866;SDS011;12114;53.404;-1.502;2023-05-29T13:58:57;8.95;;;1.70;;
23866;SDS011;12114;53.404;-1.502;2023-05-29T14:01:47;8.38;;;2.05;;
23866;SDS011;12114;53.404;-1.502;2023-05-29T14:04:31;11.52;;;2.65;;
23866;SDS011;12114;53.404;-1.502;2023-05-29T14:07:15;7.63;;;2.03;;
23866;SDS011;12114;53.404;-1.502;2023-05-29T14:09:59;7.82;;;2.30;;
23866;SDS011;12114;53.404;-1.502;2023-05-29T14:12:43;4.68;;;1.60;;
23866;SDS011;12114;53.404;-1.502;2023-05-29T14:15:27;5.07;;;1.58;;
23866;SDS011;12114;53.404;-1.502;2023-05-29T14:18:10;7.07;;;1.98;;
23866;SDS011;12114;53.404;-1.502;2023-05-29T14:20:54;4.07;;;1.60;;
23866;SDS011;12114;53.404;-1.502;2023-05-29T14:23:38;10.48;;;2.20;;
23866;SDS011;12114;53.404;-1.502;2023-05-29T14:26:22;7.78;;;2.00;;
23866;SDS011;12114;53.404;-1.502;2023-05-29T14:29:06;7.00;;;1.88;;
23866;SDS011;12114;53.404;-1.502;2023-05-29T14:31:50;8.38;;;2.70;;
23866;SDS011;12114;53.404;-1.502;2023-05-29T14:34:34;5.60;;;1.95;;
23866;SDS011;12114;53.404;-1.502;2023-05-29T14:37:18;7.07;;;1.88;;
23866;SDS011;12114;53.404;-1.502;2023-05-29T14:40:02;8.30;;;2.17;;
23866;SDS011;12114;53.404;-1.502;2023-05-29T14:42:47;8.30;;;2.17;;
23866;SDS011;12114;53.404;-1.502;2023-05-29T14:45:31;7.63;;;1.88;;
23866;SDS011;12114;53.404;-1.502;2023-05-29T14:48:15;7.40;;;1.73;;
23866;SDS011;12114;53.404;-1.502;2023-05-29T14:51:00;6.10;;;2.10;;
23866;SDS011;12114;53.404;-1.502;2023-05-29T14:53:44;7.47;;;1.77;;
23866;SDS011;12114;53.404;-1.502;2023-05-29T14:56:28;8.20;;;1.85;;
23866;SDS011;12114;53.404;-1.502;2023-05-29T14:59:12;10.88;;;2.13;;
23866;SDS011;12114;53.404;-1.502;2023-05-29T15:01:56;7.47;;;1.80;;
23866;SDS011;12114;53.404;-1.502;2023-05-29T15:04:42;10.88;;;2.17;;
23866;SDS011;12114;53.404;-1.502;2023-05-29T15:07:26;8.50;;;2.20;;
23866;SDS011;12114;53.404;-1.502;2023-05-29T15:10:10;9.07;;;2.15;;
23866;SDS011;12114;53.404;-1.502;2023-05-29T15:12:54;7.40;;;2.28;;
23866;SDS011;12114;53.404;-1.502;2023-05-29T15:18:25;9.43;;;2.35;;
23866;SDS011;12114;53.404;-1.502;2023-05-29T15:21:10;11.35;;;2.63;;
23866;SDS011;12114;53.404;-1.502;2023-05-29T15:23:54;9.43;;;2.33;;
23866;SDS011;12114;53.404;-1.502;2023-05-29T15:26:38;7.22;;;2.10;;
23866;SDS011;12114;53.404;-1.502;2023-05-29T15:29:22;9.70;;;2.15;;
23866;SDS011;12114;53.404;-1.502;2023-05-29T15:32:09;9.95;;;2.38;;
23866;SDS011;12114;53.404;-1.502;2023-05-29T15:34:53;8.27;;;1.88;;
23866;SDS011;12114;53.404;-1.502;2023-05-29T15:37:37;8.57;;;2.38;;
23866;SDS011;12114;53.404;-1.502;2023-05-29T15:40:22;8.10;;;2.20;;
23866;SDS011;12114;53.404;-1.502;2023-05-29T15:43:06;11.07;;;2.72;;
23866;SDS011;12114;53.404;-1.502;2023-05-29T15:45:50;7.47;;;2.03;;
23866;SDS011;12114;53.404;-1.502;2023-05-29T15:48:34;8.88;;;2.05;;
23866;SDS011;12114;53.404;-1.502;2023-05-29T15:51:19;11.52;;;2.20;;
23866;SDS011;12114;53.404;-1.502;2023-05-29T15:54:03;7.25;;;2.10;;
23866;SDS011;12114;53.404;-1.502;2023-05-29T15:56:47;11.35;;;2.47;;
23866;SDS011;12114;53.404;-1.502;2023-05-29T15:59:32;10.50;;;2.67;;
23866;SDS011;12114;53.404;-1.502;2023-05-29T16:02:16;8.77;;;2.30;;
23866;SDS011;12114;53.404;-1.502;2023-05-29T16:05:00;9.68;;;2.75;;
23866;SDS011;12114;53.404;-1.502;2023-05-29T16:07:44;10.38;;;2.30;;
23866;SDS011;12114;53.404;-1.502;2023-05-29T16:10:31;9.77;;;2.25;;
23866;SDS011;12114;53.404;-1.502;2023-05-29T16:13:15;11.05;;;2.20;;
23866;SDS011;12114;53.404;-1.502;2023-05-29T16:15:59;11.98;;;2.45;;
23866;SDS011;12114;53.404;-1.502;2023-05-29T16:18:43;12.02;;;2.50;;
23866;SDS011;12114;53.404;-1.502;2023-05-29T16:21:27;8.80;;;2.40;;
23866;SDS011;12114;53.404;-1.502;2023-05-29T16:24:11;12.23;;;2.70;;
23866;SDS011;12114;53.404;-1.502;2023-05-29T16:26:55;9.40;;;2.05;;
23866;SDS011;12114;53.404;-1.502;2023-05-29T16:29:39;8.50;;;2.30;;
23866;SDS011;12114;53.404;-1.502;2023-05-29T16:32:23;11.05;;;2.08;;
23866;SDS011;12114;53.404;-1.502;2023-05-29T16:35:07;8.20;;;2.20;;
23866;SDS011;12114;53.404;-1.502;2023-05-29T16:37:51;10.07;;;2.53;;
23866;SDS011;12114;53.404;-1.502;2023-05-29T16:40:35;7.25;;;1.92;;
23866;SDS011;12114;53.404;-1.502;2023-05-29T16:43:20;10.35;;;3.00;;
23866;SDS011;12114;53.404;-1.502;2023-05-29T16:46:05;10.13;;;2.50;;
23866;SDS011;12114;53.404;-1.502;2023-05-29T16:48:50;8.07;;;2.00;;
23866;SDS011;12114;53.404;-1.502;2023-05-29T16:51:34;13.95;;;2.78;;
23866;SDS011;12114;53.404;-1.502;2023-05-29T16:54:19;9.00;;;2.80;;
23866;SDS011;12114;53.404;-1.502;2023-05-29T16:57:05;11.43;;;2.72;;
23866;SDS011;12114;53.404;-1.502;2023-05-29T16:59:50;8.50;;;2.60;;